createdAt,value
2023-03-29T00:00:22.341Z,48.38
2023-03-29T00:02:49.397Z,47.82
2023-03-29T00:05:19.818Z,49.76
2023-03-29T00:07:46.538Z,51.78
2023-03-29T00:10:13.250Z,52.31
2023-03-29T00:12:40.398Z,51.70
2023-03-29T00:15:08.944Z,51.22
2023-03-29T00:17:36.867Z,52.75
2023-03-29T00:20:07.120Z,52.74
2023-03-29T00:22:34.580Z,53.59
2023-03-29T00:25:01.707Z,53.91
2023-03-29T00:27:28.718Z,53.56
2023-03-29T00:29:58.179Z,52.79
2023-03-29T00:32:25.204Z,52.15
2023-03-29T00:34:54.737Z,52.56
2023-03-29T00:37:22.951Z,51.60
2023-03-29T00:39:50.013Z,50.95
2023-03-29T00:42:17.242Z,50.69
2023-03-29T00:45:15.201Z,50.15
2023-03-29T00:47:44.024Z,49.14
2023-03-29T00:50:15.283Z,49.09
2023-03-29T00:52:43.523Z,48.71
2023-03-29T00:55:14.581Z,50.35
2023-03-29T00:57:42.304Z,49.57
2023-03-29T01:00:09.416Z,48.92
2023-03-29T01:02:36.736Z,48.91
2023-03-29T01:05:12.243Z,48.74
2023-03-29T01:07:43.139Z,48.20
2023-03-29T01:10:15.984Z,49.34
2023-03-29T01:12:50.263Z,50.29
2023-03-29T01:15:22.830Z,50.34
2023-03-29T01:17:49.597Z,51.15
2023-03-29T01:20:38.124Z,50.70
2023-03-29T01:23:23.313Z,50.71
2023-03-29T01:26:15.033Z,51.96
2023-03-29T01:28:47.381Z,52.80
2023-03-29T01:31:18.639Z,52.55
2023-03-29T01:33:49.628Z,53.86
2023-03-29T01:36:35.749Z,51.68
2023-03-29T01:39:06.183Z,52.77
2023-03-29T01:41:54.045Z,52.97
2023-03-29T01:44:38.193Z,53.40
2023-03-29T01:47:13.002Z,53.75
2023-03-29T01:49:49.225Z,52.98
2023-03-29T01:52:18.956Z,52.92
2023-03-29T01:54:50.315Z,56.67
2023-03-29T01:57:17.482Z,55.95
2023-03-29T01:59:44.232Z,55.58
2023-03-29T02:02:14.947Z,55.83
2023-03-29T02:04:47.369Z,51.12
2023-03-29T02:07:14.447Z,54.01
2023-03-29T02:09:41.126Z,51.77
2023-03-29T02:12:08.360Z,51.72
2023-03-29T02:14:36.413Z,50.65
2023-03-29T02:17:20.261Z,51.85
2023-03-29T02:19:48.844Z,50.92
2023-03-29T02:22:16.076Z,50.51
2023-03-29T02:24:42.864Z,50.99
2023-03-29T02:27:09.896Z,50.93
2023-03-29T02:29:37.713Z,50.78
2023-03-29T02:32:15.852Z,51.79
2023-03-29T02:34:46.598Z,51.94
2023-03-29T02:37:14.848Z,51.11
2023-03-29T02:39:41.645Z,52.14
2023-03-29T02:42:11.360Z,48.97
2023-03-29T02:44:39.582Z,51.93
2023-03-29T02:47:08.889Z,53.35
2023-03-29T02:49:36.598Z,52.22
2023-03-29T02:52:08.984Z,52.51
2023-03-29T02:54:36.080Z,51.23
2023-03-29T02:57:04.109Z,51.62
2023-03-29T02:59:32.011Z,53.05
2023-03-29T03:01:59.051Z,52.11
2023-03-29T03:04:28.877Z,52.76
2023-03-29T03:06:55.961Z,51.94
2023-03-29T03:09:22.898Z,50.60
2023-03-29T03:11:49.969Z,53.53
2023-03-29T03:14:16.992Z,51.81
2023-03-29T03:16:44.559Z,51.87
2023-03-29T03:19:12.914Z,50.84
2023-03-29T03:21:41.163Z,51.68
2023-03-29T03:24:10.625Z,52.73
2023-03-29T03:26:37.643Z,51.48
2023-03-29T03:29:07.179Z,51.87
2023-03-29T03:31:36.734Z,50.94
2023-03-29T03:34:03.452Z,49.62
2023-03-29T03:36:30.543Z,49.61
2023-03-29T03:39:00.304Z,51.83
2023-03-29T03:41:27.104Z,53.57
2023-03-29T03:43:55.110Z,52.14
2023-03-29T03:46:21.868Z,50.81
2023-03-29T03:48:48.650Z,51.10
2023-03-29T03:51:15.353Z,50.24
2023-03-29T03:53:42.105Z,50.94
2023-03-29T03:56:09.696Z,49.63
2023-03-29T03:58:39.615Z,48.72
2023-03-29T04:01:07.411Z,49.72
2023-03-29T04:03:35.812Z,49.08
2023-03-29T04:06:05.775Z,48.14
2023-03-29T04:08:33.518Z,49.60
2023-03-29T04:11:03.333Z,49.40
2023-03-29T04:13:31.711Z,48.08
2023-03-29T04:16:01.413Z,49.32
2023-03-29T04:18:31.410Z,48.97
2023-03-29T04:20:58.747Z,48.48
2023-03-29T04:23:26.516Z,49.77
2023-03-29T04:25:57.745Z,52.51
2023-03-29T04:28:24.824Z,54.13
2023-03-29T04:30:51.973Z,55.48
2023-03-29T04:33:19.057Z,54.74
2023-03-29T04:35:47.176Z,55.93
2023-03-29T04:38:14.621Z,55.36
2023-03-29T04:40:42.731Z,55.51
2023-03-29T04:43:09.517Z,55.24
2023-03-29T04:45:39.018Z,55.52
2023-03-29T04:48:06.181Z,54.50
2023-03-29T04:50:33.797Z,56.13
2023-03-29T04:53:00.997Z,56.65
2023-03-29T04:55:28.166Z,58.13
2023-03-29T04:57:55.252Z,58.58
2023-03-29T05:00:24.981Z,58.27
2023-03-29T05:02:52.318Z,59.04
2023-03-29T05:05:19.568Z,58.60
2023-03-29T05:07:47.461Z,58.15
2023-03-29T05:10:14.187Z,57.31
2023-03-29T05:12:41.278Z,57.48
2023-03-29T05:15:09.785Z,57.26
2023-03-29T05:17:36.520Z,57.46
2023-03-29T05:20:03.328Z,57.51
2023-03-29T05:22:32.648Z,56.36
2023-03-29T05:24:59.672Z,55.65
2023-03-29T05:27:29.229Z,58.11
2023-03-29T05:29:56.527Z,56.18
2023-03-29T05:32:23.364Z,55.27
2023-03-29T05:34:50.420Z,54.63
2023-03-29T05:37:17.480Z,55.41
2023-03-29T05:39:44.468Z,55.02
2023-03-29T05:42:12.822Z,54.00
2023-03-29T05:44:40.109Z,54.16
2023-03-29T05:47:06.842Z,53.45
2023-03-29T05:49:33.744Z,52.25
2023-03-29T05:52:00.838Z,52.54
2023-03-29T05:54:27.897Z,52.96
2023-03-29T05:56:54.948Z,52.01
2023-03-29T05:59:24.617Z,51.13
2023-03-29T06:01:51.709Z,49.72
2023-03-29T06:04:18.516Z,52.31
2023-03-29T06:06:45.624Z,52.43
2023-03-29T06:09:12.674Z,51.90
2023-03-29T06:11:39.789Z,51.08
2023-03-29T06:14:07.032Z,50.15
2023-03-29T06:16:34.090Z,48.18
2023-03-29T06:19:03.596Z,48.86
2023-03-29T06:21:30.768Z,47.51
2023-03-29T06:24:00.349Z,48.87
2023-03-29T06:26:27.209Z,48.73
2023-03-29T06:28:54.075Z,47.42
2023-03-29T06:31:20.844Z,49.27
2023-03-29T06:33:47.963Z,47.31
2023-03-29T06:36:17.596Z,49.70
2023-03-29T06:38:44.691Z,48.46
2023-03-29T06:41:11.443Z,47.73
2023-03-29T06:43:41.607Z,47.21
2023-03-29T06:46:08.629Z,47.21
2023-03-29T06:48:36.653Z,47.46
2023-03-29T06:51:04.268Z,48.57
2023-03-29T06:53:34.501Z,47.24
2023-03-29T06:56:01.611Z,46.92
2023-03-29T06:58:28.691Z,49.16
2023-03-29T07:01:02.568Z,48.60
2023-03-29T07:03:29.758Z,50.18
2023-03-29T07:06:03.366Z,51.10
2023-03-29T07:08:30.533Z,50.39
2023-03-29T07:10:57.335Z,49.92
2023-03-29T07:13:24.016Z,48.71
2023-03-29T07:15:51.342Z,48.63
2023-03-29T07:18:18.482Z,49.48
2023-03-29T07:20:45.289Z,48.43
2023-03-29T07:23:12.322Z,48.34
2023-03-29T07:25:39.085Z,48.50
2023-03-29T07:28:06.210Z,46.94
2023-03-29T07:30:34.076Z,48.93
2023-03-29T07:33:01.911Z,49.26
2023-03-29T07:35:29.112Z,50.26
2023-03-29T07:38:14.718Z,49.87
2023-03-29T07:40:42.245Z,49.81
2023-03-29T07:43:09.006Z,50.19
2023-03-29T07:45:38.814Z,51.24
2023-03-29T07:48:06.952Z,50.71
2023-03-29T07:50:34.871Z,50.06
2023-03-29T07:53:01.921Z,51.28
2023-03-29T07:55:29.052Z,48.01
2023-03-29T07:57:56.407Z,48.97
2023-03-29T08:00:23.308Z,49.28
2023-03-29T08:02:51.022Z,48.88
2023-03-29T08:05:26.036Z,47.74
2023-03-29T08:07:56.300Z,49.25
2023-03-29T08:10:26.002Z,49.09
2023-03-29T08:12:52.856Z,47.64
2023-03-29T08:15:20.104Z,48.29
2023-03-29T08:17:47.666Z,48.79
2023-03-29T08:20:15.167Z,45.85
2023-03-29T08:22:44.716Z,47.75
2023-03-29T08:25:11.558Z,48.25
2023-03-29T08:27:38.864Z,47.59
2023-03-29T08:30:06.497Z,46.84
2023-03-29T08:32:33.836Z,45.80
2023-03-29T08:35:06.346Z,46.45
2023-03-29T08:37:33.513Z,45.95
2023-03-29T08:40:00.902Z,44.24
2023-03-29T08:43:12.533Z,45.37
2023-03-29T08:46:13.895Z,44.44
2023-03-29T08:48:50.090Z,43.97
2023-03-29T08:51:27.856Z,45.09
2023-03-29T08:54:25.970Z,45.29
2023-03-29T08:56:53.208Z,44.96
2023-03-29T08:59:39.739Z,44.69
2023-03-29T09:02:12.781Z,43.44
2023-03-29T09:04:42.734Z,43.97
2023-03-29T09:07:10.045Z,45.33
2023-03-29T09:09:36.813Z,44.91
2023-03-29T09:12:21.937Z,43.32
2023-03-29T09:14:51.492Z,43.89
2023-03-29T09:17:39.317Z,45.46
2023-03-29T09:20:57.515Z,46.27
2023-03-29T09:23:43.641Z,45.03
2023-03-29T09:26:13.595Z,47.18
2023-03-29T09:29:18.776Z,44.78
2023-03-29T09:31:46.075Z,44.99
2023-03-29T09:34:30.713Z,43.46
2023-03-29T09:37:04.322Z,45.61
2023-03-29T09:39:33.853Z,45.39
2023-03-29T09:42:03.228Z,44.36
2023-03-29T09:44:38.761Z,45.29
2023-03-29T09:47:20.520Z,44.48
2023-03-29T09:49:49.269Z,44.19
2023-03-29T09:52:16.467Z,46.12
2023-03-29T09:54:43.650Z,45.70
2023-03-29T09:57:12.060Z,46.89
2023-03-29T09:59:39.528Z,45.26
2023-03-29T10:02:13.130Z,47.51
2023-03-29T10:04:40.401Z,45.29
2023-03-29T10:07:07.175Z,47.23
2023-03-29T10:09:34.758Z,46.22
2023-03-29T10:12:02.193Z,47.50
2023-03-29T10:14:44.020Z,47.54
2023-03-29T10:17:26.054Z,44.70
2023-03-29T10:19:56.637Z,45.25
2023-03-29T10:22:32.318Z,43.99
2023-03-29T10:24:59.470Z,43.67
2023-03-29T10:27:27.542Z,45.07
2023-03-29T10:29:54.334Z,43.95
2023-03-29T10:32:34.777Z,43.32
2023-03-29T10:35:22.881Z,43.38
2023-03-29T10:37:53.483Z,44.18
2023-03-29T10:40:31.365Z,44.23
2023-03-29T10:43:01.908Z,44.42
2023-03-29T10:45:30.581Z,44.18
2023-03-29T10:47:58.464Z,42.47
2023-03-29T10:50:27.332Z,42.79
2023-03-29T10:52:54.920Z,46.45
2023-03-29T10:55:22.708Z,46.51
2023-03-29T10:58:04.472Z,48.13
2023-03-29T11:00:49.107Z,50.17
2023-03-29T11:03:17.032Z,49.53
2023-03-29T11:06:03.792Z,50.44
2023-03-29T11:08:43.549Z,53.46
2023-03-29T11:11:22.967Z,53.94
2023-03-29T11:13:58.064Z,52.69
2023-03-29T11:16:37.175Z,50.11
2023-03-29T11:19:47.501Z,52.29
2023-03-29T11:22:25.905Z,52.56
2023-03-29T11:25:29.108Z,51.70
2023-03-29T11:28:06.220Z,48.48
2023-03-29T11:31:13.082Z,50.97
2023-03-29T11:33:58.365Z,50.57
2023-03-29T11:36:46.056Z,48.64
2023-03-29T11:39:29.903Z,48.32
2023-03-29T11:42:06.443Z,47.95
2023-03-29T11:44:34.069Z,49.02
2023-03-29T11:47:15.810Z,49.20
2023-03-29T11:50:01.471Z,46.85
2023-03-29T11:52:47.175Z,46.86
2023-03-29T11:55:24.907Z,47.59
2023-03-29T11:58:06.370Z,46.42
2023-03-29T12:00:39.044Z,46.56
2023-03-29T12:03:34.758Z,46.32
2023-03-29T12:06:44.684Z,48.48
2023-03-29T12:09:39.684Z,47.52
2023-03-29T12:12:17.658Z,47.21
2023-03-29T12:15:07.062Z,45.99
2023-03-29T12:17:45.743Z,44.79
2023-03-29T12:20:22.850Z,46.17
2023-03-29T12:22:53.097Z,46.82
2023-03-29T12:25:24.138Z,44.91
2023-03-29T12:28:10.501Z,45.40
2023-03-29T12:31:07.784Z,47.81
2023-03-29T12:33:57.506Z,45.85
2023-03-29T12:36:43.768Z,44.46
2023-03-29T12:39:18.508Z,45.42
2023-03-29T12:41:45.251Z,44.71
2023-03-29T12:44:16.947Z,43.86
2023-03-29T12:47:05.146Z,42.56
2023-03-29T12:49:44.889Z,42.67
2023-03-29T12:52:29.851Z,43.59
2023-03-29T12:54:58.832Z,42.73
2023-03-29T12:57:58.714Z,40.95
2023-03-29T13:00:51.464Z,41.32
2023-03-29T13:03:29.898Z,41.93
2023-03-29T13:06:04.674Z,39.51
2023-03-29T13:08:42.950Z,39.69
2023-03-29T13:11:12.756Z,41.60
2023-03-29T13:13:40.901Z,40.51
2023-03-29T13:16:18.866Z,38.84
2023-03-29T13:18:52.283Z,38.95
2023-03-29T13:21:23.478Z,41.31
2023-03-29T13:24:17.463Z,38.22
2023-03-29T13:27:25.483Z,38.35
2023-03-29T13:30:01.611Z,38.93
2023-03-29T13:32:32.522Z,40.38
2023-03-29T13:35:05.262Z,38.52
2023-03-29T13:37:54.513Z,41.14
2023-03-29T13:40:35.675Z,40.27
2023-03-29T13:43:22.391Z,38.87
2023-03-29T13:45:59.529Z,39.70
2023-03-29T13:48:32.976Z,36.43
2023-03-29T13:51:05.451Z,38.82
2023-03-29T13:53:53.508Z,37.98
2023-03-29T13:56:34.865Z,39.02
2023-03-29T13:59:06.103Z,39.64
2023-03-29T14:01:39.979Z,37.35
2023-03-29T14:04:10.852Z,37.42
2023-03-29T14:06:44.951Z,36.31
2023-03-29T14:09:12.458Z,34.54
2023-03-29T14:11:40.667Z,34.30
2023-03-29T14:14:10.808Z,34.35
2023-03-29T14:16:40.480Z,34.92
2023-03-29T14:19:16.457Z,36.08
2023-03-29T14:21:46.984Z,35.62
2023-03-29T14:24:19.127Z,36.65
2023-03-29T14:26:46.738Z,35.82
2023-03-29T14:29:13.565Z,33.86
2023-03-29T14:31:43.880Z,33.96
2023-03-29T14:34:18.608Z,34.11
2023-03-29T14:36:47.346Z,36.38
2023-03-29T14:39:21.412Z,37.97
2023-03-29T14:41:57.203Z,34.98
2023-03-29T14:44:27.190Z,35.87
2023-03-29T14:46:58.129Z,36.82
2023-03-29T14:49:25.895Z,35.53
2023-03-29T14:52:04.374Z,36.22
2023-03-29T14:54:33.082Z,38.07
2023-03-29T14:57:08.919Z,36.47
2023-03-29T14:59:41.929Z,36.62
2023-03-29T15:02:39.023Z,37.32
2023-03-29T15:05:20.486Z,34.76
2023-03-29T15:07:48.800Z,35.27
2023-03-29T15:10:19.540Z,36.37
2023-03-29T15:12:46.274Z,35.87
2023-03-29T15:15:15.371Z,35.32
2023-03-29T15:17:51.622Z,36.17
2023-03-29T15:20:26.483Z,37.61
2023-03-29T15:23:02.901Z,36.78
2023-03-29T15:28:28.801Z,35.27
2023-03-29T15:31:10.413Z,36.64
2023-03-29T15:33:40.507Z,35.70
2023-03-29T15:36:08.595Z,37.19
2023-03-29T15:38:44.009Z,36.39
2023-03-29T15:41:20.834Z,38.70
2023-03-29T15:43:48.265Z,37.11
2023-03-29T15:46:16.722Z,35.69
2023-03-29T15:48:44.430Z,36.82
2023-03-29T15:51:12.631Z,38.52
2023-03-29T15:53:39.952Z,38.12
2023-03-29T15:56:08.997Z,38.92
2023-03-29T15:58:36.418Z,38.01
2023-03-29T16:01:21.829Z,38.58
2023-03-29T16:03:49.400Z,40.66
2023-03-29T16:06:17.622Z,39.19
2023-03-29T16:08:44.567Z,38.25
2023-03-29T16:11:12.080Z,37.79
2023-03-29T16:13:42.597Z,37.22
2023-03-29T16:16:19.342Z,37.28
2023-03-29T16:19:00.721Z,37.53
2023-03-29T16:21:45.526Z,37.66
2023-03-29T16:24:14.531Z,38.14
2023-03-29T16:26:43.087Z,38.05
2023-03-29T16:29:17.423Z,38.34
2023-03-29T16:31:45.742Z,38.03
2023-03-29T16:34:13.413Z,39.35
2023-03-29T16:36:40.447Z,39.88
2023-03-29T16:39:07.198Z,40.11
2023-03-29T16:41:37.766Z,40.87
2023-03-29T16:44:05.378Z,41.04
2023-03-29T16:46:35.753Z,41.27
2023-03-29T16:49:03.438Z,43.58
2023-03-29T16:51:37.773Z,43.34
2023-03-29T16:54:04.938Z,42.85
2023-03-29T16:56:31.790Z,42.49
2023-03-29T16:58:58.584Z,43.78
2023-03-29T17:01:26.235Z,44.17
2023-03-29T17:03:55.024Z,44.61
2023-03-29T17:06:23.630Z,45.63
2023-03-29T17:08:50.731Z,46.18
2023-03-29T17:11:18.116Z,47.03
2023-03-29T17:13:44.862Z,48.18
2023-03-29T17:16:12.688Z,47.39
2023-03-29T17:18:40.116Z,46.43
2023-03-29T17:21:08.169Z,45.27
2023-03-29T17:23:35.373Z,45.03
2023-03-29T17:26:02.871Z,47.33
2023-03-29T17:28:30.749Z,48.08
2023-03-29T17:30:57.534Z,47.87
2023-03-29T17:33:26.128Z,48.41
2023-03-29T17:35:54.445Z,48.16
2023-03-29T17:38:22.944Z,48.63
2023-03-29T17:40:53.599Z,50.78
2023-03-29T17:43:23.231Z,49.66
2023-03-29T17:45:54.126Z,50.51
2023-03-29T17:48:21.125Z,49.47
2023-03-29T17:50:48.669Z,47.79
2023-03-29T17:53:16.142Z,48.53
2023-03-29T17:55:45.452Z,51.36
2023-03-29T17:58:15.127Z,50.46
2023-03-29T18:00:42.724Z,48.48
2023-03-29T18:03:13.475Z,48.26
2023-03-29T18:05:40.518Z,48.59
2023-03-29T18:08:11.940Z,49.80
2023-03-29T18:10:39.555Z,51.78
2023-03-29T18:13:06.456Z,52.53
2023-03-29T18:15:35.445Z,52.72
2023-03-29T18:18:02.384Z,53.15
2023-03-29T18:20:32.538Z,52.57
2023-03-29T18:23:02.871Z,53.18
2023-03-29T18:25:30.466Z,53.79
2023-03-29T18:27:57.275Z,55.10
2023-03-29T18:30:23.961Z,54.19
2023-03-29T18:32:51.110Z,52.08
2023-03-29T18:35:18.101Z,53.44
2023-03-29T18:37:48.152Z,54.45
2023-03-29T18:40:22.095Z,54.36
2023-03-29T18:42:49.537Z,54.58
2023-03-29T18:45:16.322Z,55.34
2023-03-29T18:47:43.078Z,54.32
2023-03-29T18:50:12.077Z,53.54
2023-03-29T18:52:42.466Z,53.33
2023-03-29T18:55:16.565Z,52.93
2023-03-29T18:57:43.928Z,52.60
2023-03-29T19:00:13.519Z,51.36
2023-03-29T19:02:43.263Z,50.52
2023-03-29T19:05:13.757Z,52.49
2023-03-29T19:07:40.731Z,52.92
2023-03-29T19:10:07.943Z,51.16
2023-03-29T19:12:34.699Z,51.64
2023-03-29T19:15:01.504Z,54.26
2023-03-29T19:17:29.670Z,54.55
2023-03-29T19:20:01.057Z,54.51
2023-03-29T19:22:28.604Z,55.16
2023-03-29T19:24:55.731Z,56.57
2023-03-29T19:27:22.494Z,55.21
2023-03-29T19:29:49.740Z,54.30
2023-03-29T19:32:19.305Z,56.97
2023-03-29T19:34:53.905Z,56.78
2023-03-29T19:37:22.642Z,54.29
2023-03-29T19:39:49.414Z,55.63
2023-03-29T19:42:16.520Z,57.17
2023-03-29T19:44:44.827Z,58.07
2023-03-29T19:47:12.817Z,57.89
2023-03-29T19:49:40.361Z,56.83
2023-03-29T19:52:07.120Z,56.94
2023-03-29T19:54:35.020Z,57.10
2023-03-29T19:57:01.875Z,57.05
2023-03-29T19:59:29.374Z,56.91
2023-03-29T20:01:56.851Z,56.90
2023-03-29T20:04:23.729Z,57.33
2023-03-29T20:06:51.296Z,56.61
2023-03-29T20:09:18.258Z,57.22
2023-03-29T20:11:45.247Z,57.37
2023-03-29T20:14:14.781Z,57.16
2023-03-29T20:16:41.990Z,56.58
2023-03-29T20:19:09.197Z,56.25
2023-03-29T20:21:35.910Z,56.21
2023-03-29T20:24:02.907Z,56.03
2023-03-29T20:26:29.922Z,56.74
2023-03-29T20:28:56.948Z,56.17
2023-03-29T20:31:29.945Z,57.02
2023-03-29T20:33:57.820Z,57.77
2023-03-29T20:36:25.518Z,57.63
2023-03-29T20:38:52.494Z,57.29
2023-03-29T20:41:19.675Z,57.63
2023-03-29T20:43:48.707Z,57.97
2023-03-29T20:46:16.456Z,58.41
2023-03-29T20:48:43.342Z,58.17
2023-03-29T20:51:10.879Z,59.06
2023-03-29T20:53:38.205Z,58.44
2023-03-29T20:56:05.365Z,59.07
2023-03-29T20:58:32.495Z,58.29
2023-03-29T21:00:59.282Z,57.95
2023-03-29T21:03:26.243Z,57.45
2023-03-29T21:05:57.786Z,58.48
2023-03-29T21:08:32.862Z,57.58
2023-03-29T21:10:59.903Z,58.70
2023-03-29T21:13:29.616Z,59.49
2023-03-29T21:15:56.381Z,59.37
2023-03-29T21:18:23.892Z,59.90
2023-03-29T21:20:50.632Z,59.70
2023-03-29T21:23:20.270Z,60.26
2023-03-29T21:25:47.204Z,61.83
2023-03-29T21:28:14.317Z,60.92
2023-03-29T21:30:41.368Z,60.00
2023-03-29T21:33:10.984Z,60.54
2023-03-29T21:35:38.157Z,58.99
2023-03-29T21:38:05.341Z,58.90
2023-03-29T21:40:31.989Z,58.60
2023-03-29T21:42:59.026Z,58.22
2023-03-29T21:45:25.792Z,56.43
2023-03-29T21:47:53.555Z,55.89
2023-03-29T21:50:21.615Z,57.07
2023-03-29T21:52:48.341Z,57.64
2023-03-29T21:55:15.138Z,58.03
2023-03-29T21:57:42.317Z,58.33
2023-03-29T22:00:09.901Z,58.21
2023-03-29T22:02:37.449Z,56.72
2023-03-29T22:05:05.016Z,55.15
2023-03-29T22:07:31.850Z,54.45
2023-03-29T22:10:00.697Z,56.96
2023-03-29T22:12:27.873Z,58.13
2023-03-29T22:14:54.605Z,57.64
2023-03-29T22:17:21.627Z,56.21
2023-03-29T22:19:51.189Z,55.50
2023-03-29T22:22:18.664Z,55.43
2023-03-29T22:24:48.299Z,53.64
2023-03-29T22:27:15.400Z,53.75
2023-03-29T22:29:42.130Z,52.67
2023-03-29T22:32:09.254Z,53.33
2023-03-29T22:34:37.177Z,53.29
2023-03-29T22:37:04.172Z,52.40
2023-03-29T22:39:31.297Z,51.12
2023-03-29T22:41:58.449Z,52.93
2023-03-29T22:44:25.160Z,54.66
2023-03-29T22:46:52.018Z,53.98
2023-03-29T22:49:19.004Z,53.21
2023-03-29T22:51:48.455Z,54.87
2023-03-29T22:54:15.489Z,56.08
2023-03-29T22:56:42.613Z,55.74
2023-03-29T22:59:09.809Z,55.55
2023-03-29T23:01:39.670Z,55.29
2023-03-29T23:04:07.601Z,56.68
2023-03-29T23:06:34.715Z,57.11
2023-03-29T23:09:04.449Z,56.51
2023-03-29T23:11:31.529Z,55.99
2023-03-29T23:13:58.632Z,55.52
2023-03-29T23:16:26.554Z,53.91
2023-03-29T23:18:55.665Z,52.86
2023-03-29T23:21:23.909Z,54.32
2023-03-29T23:23:51.825Z,56.62
2023-03-29T23:26:20.020Z,57.56
2023-03-29T23:28:46.763Z,56.51
2023-03-29T23:31:14.390Z,56.71
2023-03-29T23:33:41.744Z,55.88
2023-03-29T23:36:10.575Z,55.99
2023-03-29T23:38:38.021Z,54.16
2023-03-29T23:41:07.283Z,53.87
2023-03-29T23:43:38.926Z,54.67
2023-03-29T23:46:06.996Z,54.92
2023-03-29T23:48:33.774Z,54.02
2023-03-29T23:51:02.620Z,54.15
2023-03-29T23:53:29.843Z,54.74
2023-03-29T23:55:57.612Z,57.06
2023-03-29T23:58:24.513Z,57.41
